ACA weather

General Juan N Alvarez International Airport
Acapulco, Guerrero, Mexico

Public forecast

Using degrees Celsius for public forecast. Weather courtesy of forecast.io.

Current aviation weather report (METAR) for General Juan N Alvarez International Airport

Retrieved 2019/10/20 22:46 UTC (29 minutes ago):

MMAA 202246Z 18005KT 7SM FEW020 SCT100 BKN300 29/24 A2977 RMK 8/462 HZY

Aviation forecast (TAF) for General Juan N Alvarez International Airport

Retrieved 2019/10/20 18:00 UTC (5 hours ago):

TAF MMAA 201656Z 2018/2124 26010KT P6SM SCT020 BKN080 BKN300 TX29/2018Z TN24/2111Z TEMPO 2019/2023 5SM RA BKN020CB FM210400 03005KT P6SM SCT020 BKN080 BKN250 FM211700 26010KT P6SM SCT020 SCT090 BKN220